Time;durP1;ratioP1;P1;durP2;ratioP2;P2;SDS_P1;SDS_P2;PMS_P1;PMS_P2;Temp;Humidity;BMP_temperature;BMP_pressure;BME280_temperature;BME280_humidity;BME280_pressure;Samples;Min_cycle;Max_cycle;Signal;HPM_P1;HPM_P2
2022/11/19 00:00:49;;;;;;;24.38;11.82;;;;;;;;;;4852064;29;20069;-79
2022/11/19 00:03:17;;;;;;;27.55;11.50;;;;;;;;;;4868337;29;20057;-79
2022/11/19 00:05:44;;;;;;;24.30;10.88;;;;;;;;;;4872370;29;20164;-78
2022/11/19 00:08:11;;;;;;;27.90;11.75;;;;;;;;;;4855979;29;20604;-79
2022/11/19 00:10:38;;;;;;;23.88;11.05;;;;;;;;;;4853725;29;20529;-79
2022/11/19 00:13:05;;;;;;;25.75;11.90;;;;;;;;;;4852222;29;20053;-79
2022/11/19 00:15:32;;;;;;;29.10;11.57;;;;;;;;;;4840181;29;20132;-80
2022/11/19 00:17:59;;;;;;;27.63;11.55;;;;;;;;;;4849504;29;20046;-79
2022/11/19 00:20:26;;;;;;;27.65;12.00;;;;;;;;;;4870018;29;20077;-78
2022/11/19 00:22:53;;;;;;;25.20;10.65;;;;;;;;;;4862705;29;20073;-80
2022/11/19 00:25:20;;;;;;;25.80;11.05;;;;;;;;;;4853936;29;20070;-79
2022/11/19 00:27:47;;;;;;;27.48;11.18;;;;;;;;;;4852495;29;20062;-79
2022/11/19 00:30:13;;;;;;;24.05;10.38;;;;;;;;;;4853340;29;21426;-79
2022/11/19 00:32:59;;;;;;;25.90;10.90;;;;;;;;;;4835851;29;20066;-80
2022/11/19 00:35:26;;;;;;;24.27;11.00;;;;;;;;;;4842351;29;20057;-79
2022/11/19 00:37:52;;;;;;;24.83;10.82;;;;;;;;;;4855499;29;20064;-79
2022/11/19 00:40:18;;;;;;;22.67;10.00;;;;;;;;;;4853974;29;20061;-79
2022/11/19 00:43:45;;;;;;;24.55;11.65;;;;;;;;;;4852144;29;20257;-79
2022/11/19 00:45:31;;;;;;;22.80;10.90;;;;;;;;;;4851901;29;20057;-79
2022/11/19 00:47:57;;;;;;;23.13;11.35;;;;;;;;;;4843135;29;21238;-79
2022/11/19 00:50:24;;;;;;;24.55;10.93;;;;;;;;;;4853100;29;20538;-80
2022/11/19 00:52:50;;;;;;;29.40;11.35;;;;;;;;;;4844544;29;20097;-79
2022/11/19 00:55:16;;;;;;;26.40;11.57;;;;;;;;;;4852827;29;20058;-78
2022/11/19 00:57:43;;;;;;;24.27;11.15;;;;;;;;;;4845506;29;20066;-79
2022/11/19 01:00:09;;;;;;;23.13;10.80;;;;;;;;;;4849346;29;20133;-79
2022/11/19 01:02:35;;;;;;;23.67;10.88;;;;;;;;;;4852492;29;20619;-79
2022/11/19 01:05:02;;;;;;;22.67;10.55;;;;;;;;;;4848306;29;20050;-80
2022/11/19 01:07:28;;;;;;;22.83;11.00;;;;;;;;;;4846576;29;20481;-79
2022/11/19 01:09:55;;;;;;;26.20;10.98;;;;;;;;;;4846808;29;20062;-80
2022/11/19 01:12:21;;;;;;;25.67;11.68;;;;;;;;;;4832962;29;20141;-79
2022/11/19 01:14:47;;;;;;;27.85;10.90;;;;;;;;;;4848585;29;20944;-79
2022/11/19 01:17:14;;;;;;;24.52;12.05;;;;;;;;;;4833634;29;20149;-79
2022/11/19 01:19:40;;;;;;;25.88;11.68;;;;;;;;;;4851208;29;20065;-79
2022/11/19 01:22:06;;;;;;;26.08;12.10;;;;;;;;;;4848940;29;20848;-79
2022/11/19 01:24:33;;;;;;;24.70;11.82;;;;;;;;;;4837165;29;20518;-78
2022/11/19 01:26:59;;;;;;;23.60;11.85;;;;;;;;;;4853788;29;20065;-79
2022/11/19 01:29:25;;;;;;;25.85;11.45;;;;;;;;;;4843519;29;20790;-79
2022/11/19 01:31:52;;;;;;;26.15;11.65;;;;;;;;;;4851051;29;20138;-79
2022/11/19 01:34:18;;;;;;;24.67;12.35;;;;;;;;;;4851325;29;20530;-79
2022/11/19 01:36:44;;;;;;;25.42;12.35;;;;;;;;;;4852810;29;20091;-79
2022/11/19 01:39:10;;;;;;;24.55;11.40;;;;;;;;;;4828375;29;20823;-79
2022/11/19 01:41:37;;;;;;;22.35;11.60;;;;;;;;;;4848230;29;20526;-80
2022/11/19 01:44:04;;;;;;;25.65;12.13;;;;;;;;;;4847781;29;20058;-80
2022/11/19 01:46:35;;;;;;;26.33;11.77;;;;;;;;;;4847895;29;20093;-79
2022/11/19 01:49:15;;;;;;;24.75;11.30;;;;;;;;;;4830017;29;20057;-78
2022/11/19 01:51:44;;;;;;;26.33;12.88;;;;;;;;;;4852539;29;20054;-79
2022/11/19 01:54:25;;;;;;;24.38;11.52;;;;;;;;;;4851610;29;20073;-78
2022/11/19 01:56:56;;;;;;;22.50;11.27;;;;;;;;;;4841668;29;20065;-79
2022/11/19 01:59:22;;;;;;;23.10;11.15;;;;;;;;;;4851051;29;20066;-79
2022/11/19 02:01:49;;;;;;;21.33;10.95;;;;;;;;;;4853450;29;20974;-79
2022/11/19 02:04:16;;;;;;;24.58;12.20;;;;;;;;;;4848902;29;20065;-79
2022/11/19 02:06:43;;;;;;;28.60;12.75;;;;;;;;;;4834609;29;20076;-79
2022/11/19 02:09:09;;;;;;;26.05;12.32;;;;;;;;;;4854121;29;20062;-79
2022/11/19 02:11:36;;;;;;;21.90;11.80;;;;;;;;;;4851562;29;20062;-79
2022/11/19 02:14:14;;;;;;;26.90;12.90;;;;;;;;;;4845040;29;20477;-80
2022/11/19 02:16:41;;;;;;;23.10;12.88;;;;;;;;;;4850965;29;20491;-78
2022/11/19 02:19:19;;;;;;;24.40;12.68;;;;;;;;;;4849880;29;20062;-78
2022/11/19 02:22:00;;;;;;;23.83;11.98;;;;;;;;;;4854611;29;20141;-78
2022/11/19 02:24:26;;;;;;;27.38;12.57;;;;;;;;;;4853801;29;20585;-79
2022/11/19 02:27:02;;;;;;;27.88;12.95;;;;;;;;;;4856840;29;20061;-79
2022/11/19 02:29:28;;;;;;;25.40;12.45;;;;;;;;;;4857664;29;20065;-78
2022/11/19 02:31:58;;;;;;;28.95;13.52;;;;;;;;;;4857638;29;20054;-78
2022/11/19 02:34:29;;;;;;;26.20;12.35;;;;;;;;;;4833896;29;20058;-78
2022/11/19 02:37:22;;;;;;;26.60;12.45;;;;;;;;;;4855918;29;20066;-79
2022/11/19 02:39:51;;;;;;;27.67;12.57;;;;;;;;;;4852378;29;20127;-79
2022/11/19 02:42:29;;;;;;;25.63;12.55;;;;;;;;;;4856285;29;20504;-81
2022/11/19 02:44:59;;;;;;;30.75;13.75;;;;;;;;;;4853047;29;20066;-80
2022/11/19 02:47:28;;;;;;;29.20;13.02;;;;;;;;;;4855440;29;20283;-80
2022/11/19 02:49:58;;;;;;;28.75;13.07;;;;;;;;;;4853473;29;20072;-79
2022/11/19 02:52:25;;;;;;;28.05;14.05;;;;;;;;;;4859852;29;20062;-81
2022/11/19 02:54:52;;;;;;;27.02;13.25;;;;;;;;;;4852742;29;20061;-79
2022/11/19 02:57:18;;;;;;;27.08;13.88;;;;;;;;;;4858306;29;20054;-79
2022/11/19 03:05:22;;;;;;;33.30;14.65;;;;;;;;;;4853798;29;46720;-81
2022/11/19 03:07:49;;;;;;;31.13;14.98;;;;;;;;;;4858108;29;20050;-80
2022/11/19 03:10:16;;;;;;;34.60;15.82;;;;;;;;;;4853245;29;20284;-79
2022/11/19 03:12:46;;;;;;;35.35;16.38;;;;;;;;;;4854898;29;20062;-81
2022/11/19 03:18:09;;;;;;;35.75;15.68;;;;;;;;;;4853791;29;20065;-81
2022/11/19 03:20:40;;;;;;;32.70;15.77;;;;;;;;;;4858473;29;20064;-80
2022/11/19 03:23:17;;;;;;;32.70;15.48;;;;;;;;;;4844303;29;20054;-80
2022/11/19 03:25:45;;;;;;;31.85;15.57;;;;;;;;;;4857301;29;20066;-80
2022/11/19 03:28:14;;;;;;;34.13;15.60;;;;;;;;;;4857334;29;20061;-81
2022/11/19 03:30:41;;;;;;;36.75;16.75;;;;;;;;;;4857326;29;20093;-81
2022/11/19 03:33:37;;;;;;;32.28;16.25;;;;;;;;;;4847175;29;20062;-81
2022/11/19 03:36:09;;;;;;;33.47;15.57;;;;;;;;;;4840541;29;20625;-80
2022/11/19 03:38:39;;;;;;;34.63;16.20;;;;;;;;;;4850238;29;20297;-79
2022/11/19 03:41:06;;;;;;;35.70;16.05;;;;;;;;;;4845901;29;20062;-79
2022/11/19 03:43:35;;;;;;;30.98;14.77;;;;;;;;;;4854174;29;20054;-79
2022/11/19 03:46:03;;;;;;;33.47;16.08;;;;;;;;;;4857231;29;20118;-80
2022/11/19 03:48:30;;;;;;;34.58;16.38;;;;;;;;;;4854861;29;20679;-80
2022/11/19 03:50:59;;;;;;;31.42;14.73;;;;;;;;;;4842969;29;20058;-80
2022/11/19 03:53:26;;;;;;;31.92;15.38;;;;;;;;;;4839663;29;20153;-80
2022/11/19 03:56:01;;;;;;;32.72;14.98;;;;;;;;;;4850883;29;20101;-80
2022/11/19 03:58:39;;;;;;;30.13;15.45;;;;;;;;;;4842910;29;20061;-81
2022/11/19 04:01:06;;;;;;;33.28;15.43;;;;;;;;;;4848504;29;20062;-79
2022/11/19 04:03:32;;;;;;;31.90;15.18;;;;;;;;;;4857696;29;20058;-79
2022/11/19 04:05:59;;;;;;;27.40;14.55;;;;;;;;;;4861167;29;20507;-79
2022/11/19 04:08:25;;;;;;;32.10;15.73;;;;;;;;;;4847424;29;20058;-79
2022/11/19 04:10:53;;;;;;;33.10;14.93;;;;;;;;;;4854948;29;20163;-80
2022/11/19 04:13:22;;;;;;;28.65;14.05;;;;;;;;;;4840696;29;20256;-79
2022/11/19 04:15:49;;;;;;;32.88;15.48;;;;;;;;;;4856108;29;20105;-79
2022/11/19 04:18:16;;;;;;;30.90;15.20;;;;;;;;;;4863212;29;20066;-81
2022/11/19 04:20:44;;;;;;;31.90;15.05;;;;;;;;;;4877703;29;20041;-82
2022/11/19 04:23:11;;;;;;;31.00;14.90;;;;;;;;;;4860490;29;20054;-79
2022/11/19 04:25:40;;;;;;;30.95;14.98;;;;;;;;;;4866060;29;20065;-79
2022/11/19 04:28:07;;;;;;;30.08;14.73;;;;;;;;;;4859556;29;20050;-82
2022/11/19 04:30:33;;;;;;;32.00;14.65;;;;;;;;;;4859926;29;20046;-82
2022/11/19 04:32:59;;;;;;;26.40;13.68;;;;;;;;;;4854753;29;20086;-79
2022/11/19 04:35:26;;;;;;;32.92;15.55;;;;;;;;;;4848632;29;20537;-79
2022/11/19 04:37:52;;;;;;;31.13;14.38;;;;;;;;;;4857809;29;20093;-80
2022/11/19 04:40:18;;;;;;;29.00;14.32;;;;;;;;;;4859865;29;20065;-79
2022/11/19 04:42:45;;;;;;;36.35;15.20;;;;;;;;;;4854239;29;20614;-80
2022/11/19 04:45:13;;;;;;;30.67;15.20;;;;;;;;;;4858925;29;20062;-79
2022/11/19 04:47:54;;;;;;;30.23;14.00;;;;;;;;;;4851678;29;20069;-80
2022/11/19 04:50:23;;;;;;;28.27;14.38;;;;;;;;;;4859324;29;20053;-80
2022/11/19 04:56:09;;;;;;;28.77;14.18;;;;;;;;;;4894292;29;20053;-78
2022/11/19 04:58:35;;;;;;;30.25;15.07;;;;;;;;;;4854656;29;20533;-80
2022/11/19 05:01:02;;;;;;;36.38;15.05;;;;;;;;;;4860906;29;20061;-78
2022/11/19 05:03:28;;;;;;;33.70;14.70;;;;;;;;;;4854689;29;20062;-78
2022/11/19 05:05:55;;;;;;;29.77;14.38;;;;;;;;;;4859254;29;20073;-80
2022/11/19 05:08:21;;;;;;;27.83;14.07;;;;;;;;;;4853438;29;20077;-79
2022/11/19 05:10:47;;;;;;;33.22;14.95;;;;;;;;;;4854073;29;20061;-80
2022/11/19 05:13:14;;;;;;;33.13;14.88;;;;;;;;;;4835548;29;20069;-80
2022/11/19 05:15:40;;;;;;;29.45;14.35;;;;;;;;;;4855343;29;20046;-81
2022/11/19 05:18:06;;;;;;;32.65;14.35;;;;;;;;;;4854803;29;20064;-80
2022/11/19 05:20:33;;;;;;;30.98;14.68;;;;;;;;;;4841770;29;20082;-79
2022/11/19 05:22:59;;;;;;;33.47;14.95;;;;;;;;;;4854571;29;20429;-78
2022/11/19 05:25:25;;;;;;;35.20;14.75;;;;;;;;;;4845206;29;20061;-78
2022/11/19 05:27:52;;;;;;;32.00;14.90;;;;;;;;;;4839390;29;20057;-80
2022/11/19 05:30:18;;;;;;;34.13;15.13;;;;;;;;;;4855486;29;20373;-78
2022/11/19 05:32:45;;;;;;;35.65;15.90;;;;;;;;;;4856684;29;20082;-80
2022/11/19 05:35:12;;;;;;;31.02;14.77;;;;;;;;;;4855422;29;20141;-80
2022/11/19 05:37:38;;;;;;;28.40;14.20;;;;;;;;;;4863407;29;20608;-79
2022/11/19 05:40:05;;;;;;;31.65;15.20;;;;;;;;;;4838114;29;20058;-79
2022/11/19 05:42:49;;;;;;;32.25;14.23;;;;;;;;;;4838489;29;20058;-80
2022/11/19 05:45:15;;;;;;;31.08;14.77;;;;;;;;;;4852567;29;20157;-79
2022/11/19 05:47:42;;;;;;;33.10;13.90;;;;;;;;;;4850018;29;20058;-79
2022/11/19 05:50:13;;;;;;;31.90;13.98;;;;;;;;;;4841797;29;20054;-79
2022/11/19 05:52:40;;;;;;;34.00;15.40;;;;;;;;;;4849031;29;20853;-80
2022/11/19 05:55:06;;;;;;;29.35;12.60;;;;;;;;;;4846433;29;21186;-79
2022/11/19 05:57:32;;;;;;;36.15;15.65;;;;;;;;;;4852780;29;20058;-77
2022/11/19 05:59:59;;;;;;;31.25;14.00;;;;;;;;;;4857226;29;20351;-77
2022/11/19 06:02:25;;;;;;;32.75;14.75;;;;;;;;;;4846099;29;20057;-78
2022/11/19 06:04:52;;;;;;;29.33;13.80;;;;;;;;;;4856421;29;20053;-80
2022/11/19 06:07:18;;;;;;;28.98;14.10;;;;;;;;;;4839298;29;20933;-80
2022/11/19 06:09:44;;;;;;;36.92;15.13;;;;;;;;;;4859244;29;20567;-80
2022/11/19 06:12:11;;;;;;;31.98;14.38;;;;;;;;;;4855796;29;20054;-79
2022/11/19 06:14:37;;;;;;;30.13;14.02;;;;;;;;;;4861466;29;20060;-80
2022/11/19 06:17:03;;;;;;;29.20;13.65;;;;;;;;;;4851910;29;20054;-78
2022/11/19 06:19:37;;;;;;;32.58;13.27;;;;;;;;;;4854734;29;20069;-80
2022/11/19 06:22:06;;;;;;;27.10;13.10;;;;;;;;;;4855871;29;20111;-78
2022/11/19 06:24:33;;;;;;;31.00;14.40;;;;;;;;;;4838129;29;20069;-79
2022/11/19 06:26:59;;;;;;;27.52;13.07;;;;;;;;;;4853936;29;21091;-79
2022/11/19 06:29:25;;;;;;;27.23;13.35;;;;;;;;;;4842305;29;21036;-79
2022/11/19 06:31:52;;;;;;;27.13;13.10;;;;;;;;;;4841765;29;20077;-79
2022/11/19 06:34:18;;;;;;;30.30;13.48;;;;;;;;;;4838468;29;20634;-77
2022/11/19 06:36:45;;;;;;;27.88;12.48;;;;;;;;;;4846338;29;20925;-78
2022/11/19 06:39:15;;;;;;;;;;;;;;;;;;4844065;29;20054;-78
2022/11/19 06:41:42;;;;;;;29.33;12.60;;;;;;;;;;4854283;29;44464;-78
2022/11/19 06:44:08;;;;;;;30.73;14.00;;;;;;;;;;4838739;29;20069;-79
2022/11/19 06:46:35;;;;;;;29.55;13.10;;;;;;;;;;4843606;29;20575;-79
2022/11/19 06:49:04;;;;;;;27.42;13.10;;;;;;;;;;4852304;29;20270;-78
2022/11/19 06:51:30;;;;;;;28.63;14.35;;;;;;;;;;4839213;29;20050;-80
2022/11/19 06:53:57;;;;;;;30.15;13.35;;;;;;;;;;4850914;29;20074;-79
2022/11/19 06:56:24;;;;;;;29.70;12.57;;;;;;;;;;4852669;29;20995;-79
2022/11/19 06:58:50;;;;;;;28.92;13.70;;;;;;;;;;4840993;29;20152;-78
2022/11/19 07:01:16;;;;;;;27.83;12.57;;;;;;;;;;4853196;29;20105;-79
2022/11/19 07:03:43;;;;;;;28.85;13.55;;;;;;;;;;4857224;29;20041;-78
2022/11/19 07:06:09;;;;;;;31.35;13.57;;;;;;;;;;4855575;29;20589;-77
2022/11/19 07:08:36;;;;;;;28.75;13.07;;;;;;;;;;4849491;29;20069;-79
2022/11/19 07:11:24;;;;;;;29.23;13.35;;;;;;;;;;4831659;29;20119;-78
2022/11/19 07:13:59;;;;;;;32.35;13.82;;;;;;;;;;4846771;29;20069;-77
2022/11/19 07:16:29;;;;;;;31.63;13.30;;;;;;;;;;4850823;29;20060;-78
2022/11/19 07:18:56;;;;;;;27.38;12.93;;;;;;;;;;4833061;29;20074;-79
2022/11/19 07:21:23;;;;;;;28.92;13.07;;;;;;;;;;4835219;29;20054;-79
2022/11/19 07:23:49;;;;;;;30.10;12.77;;;;;;;;;;4841129;29;20061;-78
2022/11/19 07:26:15;;;;;;;29.73;13.27;;;;;;;;;;4833983;29;20070;-79
2022/11/19 07:28:42;;;;;;;31.63;13.55;;;;;;;;;;4843220;29;20065;-78
2022/11/19 07:31:08;;;;;;;32.53;13.60;;;;;;;;;;4840212;29;20441;-78
2022/11/19 07:33:35;;;;;;;30.00;13.15;;;;;;;;;;4839457;29;20062;-78
2022/11/19 07:36:01;;;;;;;31.25;13.52;;;;;;;;;;4839201;29;20069;-78
2022/11/19 07:38:28;;;;;;;30.88;13.63;;;;;;;;;;4831608;29;21418;-79
2022/11/19 07:41:01;;;;;;;29.80;13.13;;;;;;;;;;4853268;29;20054;-78
2022/11/19 07:43:27;;;;;;;26.27;13.07;;;;;;;;;;4840954;29;20058;-79
2022/11/19 07:45:53;;;;;;;29.85;12.85;;;;;;;;;;4840031;29;20062;-78
2022/11/19 07:48:19;;;;;;;26.85;13.15;;;;;;;;;;4838307;29;20062;-77
2022/11/19 07:50:50;;;;;;;28.45;13.25;;;;;;;;;;4836571;29;20569;-78
2022/11/19 07:53:21;;;;;;;29.83;13.32;;;;;;;;;;4855230;29;20874;-79
2022/11/19 07:55:48;;;;;;;30.85;13.50;;;;;;;;;;4836723;29;20046;-79
2022/11/19 07:58:14;;;;;;;30.15;13.70;;;;;;;;;;4853834;29;20064;-80
2022/11/19 08:00:40;;;;;;;26.88;12.38;;;;;;;;;;4839894;29;20065;-79
2022/11/19 08:03:07;;;;;;;28.30;13.95;;;;;;;;;;4852830;29;20141;-79
2022/11/19 08:05:37;;;;;;;29.15;13.38;;;;;;;;;;4855973;29;20066;-80
2022/11/19 08:08:06;;;;;;;28.70;12.77;;;;;;;;;;4857428;29;20069;-80
2022/11/19 08:10:36;;;;;;;28.67;13.18;;;;;;;;;;4836301;29;20562;-80
2022/11/19 08:13:03;;;;;;;30.95;13.40;;;;;;;;;;4857439;29;20101;-79
2022/11/19 08:15:33;;;;;;;30.17;13.30;;;;;;;;;;4859164;29;20066;-79
2022/11/19 08:18:11;;;;;;;29.50;14.07;;;;;;;;;;4840800;29;20137;-79
2022/11/19 08:20:41;;;;;;;26.98;12.82;;;;;;;;;;4843545;29;20072;-80
2022/11/19 08:23:11;;;;;;;27.05;13.27;;;;;;;;;;4839364;29;20140;-81
2022/11/19 08:25:41;;;;;;;28.05;13.07;;;;;;;;;;4837250;29;20062;-81
2022/11/19 08:28:07;;;;;;;30.08;13.65;;;;;;;;;;4834870;29;20548;-80
2022/11/19 08:30:33;;;;;;;27.02;13.27;;;;;;;;;;4835765;29;20053;-80
2022/11/19 08:33:00;;;;;;;28.77;12.95;;;;;;;;;;4840486;29;20073;-80
2022/11/19 08:35:26;;;;;;;33.75;13.55;;;;;;;;;;4837928;29;20057;-81
2022/11/19 08:37:52;;;;;;;29.13;13.18;;;;;;;;;;4854204;29;20128;-80
2022/11/19 08:40:19;;;;;;;29.45;13.07;;;;;;;;;;4854049;29;20607;-80
2022/11/19 08:43:00;;;;;;;27.33;12.55;;;;;;;;;;4839351;29;20054;-79
2022/11/19 08:45:28;;;;;;;29.75;13.32;;;;;;;;;;4843620;29;20097;-79
2022/11/19 08:47:55;;;;;;;29.08;12.63;;;;;;;;;;4842053;29;20066;-79
2022/11/19 08:50:22;;;;;;;26.30;12.00;;;;;;;;;;4859726;29;20053;-79
2022/11/19 08:52:55;;;;;;;28.40;12.80;;;;;;;;;;4858122;29;20070;-78
2022/11/19 08:55:24;;;;;;;31.58;12.30;;;;;;;;;;4858109;29;20887;-79
2022/11/19 08:57:51;;;;;;;27.38;12.82;;;;;;;;;;4843523;29;20076;-79
2022/11/19 09:00:19;;;;;;;29.40;12.77;;;;;;;;;;4855372;29;20054;-79
2022/11/19 09:02:46;;;;;;;27.85;13.05;;;;;;;;;;4853298;29;20081;-79
2022/11/19 09:05:12;;;;;;;27.83;12.77;;;;;;;;;;4867358;29;20058;-79
2022/11/19 09:07:40;;;;;;;26.23;12.13;;;;;;;;;;4844696;29;20049;-78
2022/11/19 09:10:39;;;;;;;26.67;12.68;;;;;;;;;;4841653;29;20119;-79
2022/11/19 09:13:13;;;;;;;24.45;11.23;;;;;;;;;;4824100;29;20694;-79
2022/11/19 09:15:40;;;;;;;26.25;12.65;;;;;;;;;;4867059;29;20057;-79
2022/11/19 09:18:17;;;;;;;24.33;11.95;;;;;;;;;;4861580;29;20089;-79
2022/11/19 09:20:58;;;;;;;23.55;10.95;;;;;;;;;;4841967;29;20058;-80
2022/11/19 09:23:25;;;;;;;25.48;10.98;;;;;;;;;;4840403;29;20049;-79
2022/11/19 09:26:02;;;;;;;25.45;11.98;;;;;;;;;;4841129;29;20105;-79
2022/11/19 09:28:30;;;;;;;23.40;11.05;;;;;;;;;;4855499;29;20057;-79
2022/11/19 09:30:57;;;;;;;27.35;11.50;;;;;;;;;;4839807;29;20073;-79
2022/11/19 09:33:24;;;;;;;23.15;10.85;;;;;;;;;;4841574;29;20089;-79
2022/11/19 09:35:50;;;;;;;27.75;10.75;;;;;;;;;;4834299;29;20394;-79
2022/11/19 09:38:17;;;;;;;24.77;11.18;;;;;;;;;;4853734;29;20069;-79
2022/11/19 09:40:45;;;;;;;22.73;9.95;;;;;;;;;;4840737;29;20752;-79
2022/11/19 09:43:12;;;;;;;23.67;10.90;;;;;;;;;;4855552;29;20054;-79
2022/11/19 09:45:43;;;;;;;24.30;10.32;;;;;;;;;;4856306;29;20077;-79
2022/11/19 09:48:16;;;;;;;21.52;10.38;;;;;;;;;;4852513;29;20121;-79
2022/11/19 09:50:46;;;;;;;25.40;11.07;;;;;;;;;;4835162;29;20137;-79
2022/11/19 09:53:22;;;;;;;22.95;10.07;;;;;;;;;;4837568;29;20066;-79
2022/11/19 09:55:50;;;;;;;19.55;9.63;;;;;;;;;;4837759;29;20061;-78
2022/11/19 09:58:34;;;;;;;23.77;11.25;;;;;;;;;;4845060;29;20129;-79
2022/11/19 10:01:00;;;;;;;19.98;10.00;;;;;;;;;;4855735;29;20049;-78
2022/11/19 10:03:27;;;;;;;20.15;9.40;;;;;;;;;;4839353;29;20236;-78
2022/11/19 10:06:04;;;;;;;21.05;9.95;;;;;;;;;;4873511;29;20092;-77
2022/11/19 10:08:52;;;;;;;20.48;9.45;;;;;;;;;;4852481;29;20057;-78
2022/11/19 10:11:23;;;;;;;19.33;9.52;;;;;;;;;;4836489;29;20349;-79
2022/11/19 10:13:56;;;;;;;18.60;9.02;;;;;;;;;;4858165;29;20897;-78
2022/11/19 10:16:34;;;;;;;21.15;9.93;;;;;;;;;;4851261;29;20093;-77
2022/11/19 10:19:13;;;;;;;21.00;9.88;;;;;;;;;;4840744;29;20061;-78
2022/11/19 10:21:58;;;;;;;18.20;9.13;;;;;;;;;;4839810;29;20058;-78
2022/11/19 10:24:37;;;;;;;20.17;9.82;;;;;;;;;;4852764;29;20066;-78
2022/11/19 10:27:11;;;;;;;17.98;9.23;;;;;;;;;;4846793;29;20061;-79
2022/11/19 10:29:39;;;;;;;19.83;9.48;;;;;;;;;;4833918;29;20054;-77
2022/11/19 10:32:15;;;;;;;20.83;9.60;;;;;;;;;;4829315;29;20066;-77
2022/11/19 10:34:42;;;;;;;17.83;8.52;;;;;;;;;;4851849;29;20054;-77
2022/11/19 10:37:20;;;;;;;19.63;9.60;;;;;;;;;;4842586;29;20069;-77
2022/11/19 10:39:50;;;;;;;19.48;9.65;;;;;;;;;;4860289;29;20136;-77
2022/11/19 10:42:19;;;;;;;19.40;9.35;;;;;;;;;;4852596;29;20061;-78
2022/11/19 10:44:49;;;;;;;20.42;9.95;;;;;;;;;;4851534;29;20050;-77
2022/11/19 10:47:21;;;;;;;21.17;8.82;;;;;;;;;;4855378;29;20062;-78
2022/11/19 10:49:52;;;;;;;18.73;9.18;;;;;;;;;;4853284;29;20557;-78
2022/11/19 10:52:22;;;;;;;18.05;8.20;;;;;;;;;;4838257;29;20050;-78
2022/11/19 10:54:51;;;;;;;17.10;8.85;;;;;;;;;;4852547;29;20058;-78
2022/11/19 10:57:18;;;;;;;17.23;7.75;;;;;;;;;;4849087;29;20090;-77
2022/11/19 10:59:45;;;;;;;18.10;8.88;;;;;;;;;;4855484;29;20065;-76
2022/11/19 11:02:17;;;;;;;17.90;9.38;;;;;;;;;;4855584;29;20058;-77
2022/11/19 11:05:02;;;;;;;18.70;8.73;;;;;;;;;;4854765;29;20069;-78
2022/11/19 11:07:48;;;;;;;18.60;8.35;;;;;;;;;;4851600;29;20057;-77
2022/11/19 11:10:26;;;;;;;17.58;8.68;;;;;;;;;;4842547;29;20115;-77
2022/11/19 11:15:57;;;;;;;17.85;8.10;;;;;;;;;;4854699;29;20058;-77
2022/11/19 11:18:28;;;;;;;16.25;7.75;;;;;;;;;;4833038;29;20096;-77
2022/11/19 11:20:55;;;;;;;;;;;;;;;;;;4850778;29;20070;-78
2022/11/19 11:23:23;;;;;;;17.38;8.10;;;;;;;;;;4851692;29;45011;-78
2022/11/19 11:26:01;;;;;;;19.80;9.23;;;;;;;;;;4828263;29;20066;-78
2022/11/19 11:28:29;;;;;;;17.63;8.10;;;;;;;;;;4847953;29;22024;-78
2022/11/19 11:30:58;;;;;;;16.13;7.57;;;;;;;;;;4837876;29;20136;-78
2022/11/19 11:33:34;;;;;;;15.40;7.40;;;;;;;;;;4859645;29;20141;-78
2022/11/19 11:36:06;;;;;;;17.40;7.85;;;;;;;;;;4857157;29;20062;-78
2022/11/19 11:38:39;;;;;;;17.52;8.00;;;;;;;;;;4849243;29;20137;-79
2022/11/19 11:41:07;;;;;;;17.88;8.63;;;;;;;;;;4875184;29;20048;-78
2022/11/19 11:44:01;;;;;;;15.45;8.25;;;;;;;;;;4844747;29;20149;-79
2022/11/19 11:46:40;;;;;;;18.30;7.85;;;;;;;;;;4858128;29;20065;-78
2022/11/19 11:49:10;;;;;;;15.43;7.65;;;;;;;;;;4851072;29;20054;-79
2022/11/19 11:51:41;;;;;;;17.90;7.82;;;;;;;;;;4846851;29;20061;-78
2022/11/19 11:54:17;;;;;;;16.55;8.68;;;;;;;;;;4849219;29;20103;-78
2022/11/19 11:56:44;;;;;;;17.02;8.02;;;;;;;;;;4834610;29;20052;-78
2022/11/19 11:59:40;;;;;;;16.88;7.75;;;;;;;;;;4814158;29;20058;-78
2022/11/19 12:02:06;;;;;;;15.02;7.30;;;;;;;;;;4819284;29;20062;-78
2022/11/19 12:04:34;;;;;;;16.13;8.10;;;;;;;;;;4832449;29;20101;-79
2022/11/19 12:07:21;;;;;;;17.27;7.93;;;;;;;;;;4841746;29;20082;-79
2022/11/19 12:09:51;;;;;;;15.25;7.28;;;;;;;;;;4834802;29;20541;-78
2022/11/19 12:12:27;;;;;;;14.98;6.88;;;;;;;;;;4826794;29;20534;-78
2022/11/19 12:15:09;;;;;;;15.52;7.30;;;;;;;;;;4839428;29;20170;-78
2022/11/19 12:17:46;;;;;;;14.52;7.50;;;;;;;;;;4817872;29;20526;-78
2022/11/19 12:20:22;;;;;;;15.02;6.63;;;;;;;;;;4837055;29;20063;-77
2022/11/19 12:22:48;;;;;;;14.85;6.97;;;;;;;;;;4830238;29;20062;-77
2022/11/19 12:25:21;;;;;;;14.07;7.05;;;;;;;;;;4824873;29;20058;-77
2022/11/19 12:28:00;;;;;;;13.82;6.75;;;;;;;;;;4828836;29;20085;-76
2022/11/19 12:30:34;;;;;;;12.80;6.80;;;;;;;;;;4817800;29;20069;-77
2022/11/19 12:33:06;;;;;;;12.50;6.60;;;;;;;;;;4833895;29;20088;-76
2022/11/19 12:35:39;;;;;;;13.23;6.72;;;;;;;;;;4828839;29;20064;-76
2022/11/19 12:38:28;;;;;;;12.73;6.40;;;;;;;;;;4822542;29;20066;-77
2022/11/19 12:41:12;;;;;;;14.55;7.00;;;;;;;;;;4827063;29;20495;-76
2022/11/19 12:43:50;;;;;;;12.50;6.57;;;;;;;;;;4833053;29;20062;-77
2022/11/19 12:46:22;;;;;;;15.10;6.70;;;;;;;;;;4815194;29;20058;-77
2022/11/19 12:49:07;;;;;;;13.10;6.68;;;;;;;;;;4829587;29;20064;-77
2022/11/19 12:51:40;;;;;;;11.93;6.03;;;;;;;;;;4830350;29;20834;-77
2022/11/19 12:54:27;;;;;;;12.02;6.47;;;;;;;;;;4837315;29;20062;-77
2022/11/19 12:57:03;;;;;;;14.15;6.40;;;;;;;;;;4849277;29;20062;-77
2022/11/19 12:59:33;;;;;;;11.75;5.88;;;;;;;;;;4849669;29;20066;-77
2022/11/19 13:02:01;;;;;;;12.20;5.80;;;;;;;;;;4848877;29;20060;-77
2022/11/19 13:04:35;;;;;;;10.88;5.85;;;;;;;;;;4849116;29;20057;-77
2022/11/19 13:07:22;;;;;;;14.35;6.60;;;;;;;;;;4843281;29;20660;-77
2022/11/19 13:10:21;;;;;;;10.98;5.30;;;;;;;;;;4839463;29;20509;-77
2022/11/19 13:12:49;;;;;;;11.00;5.43;;;;;;;;;;4823622;29;20053;-77
2022/11/19 13:15:21;;;;;;;11.30;5.95;;;;;;;;;;4844038;29;20415;-77
2022/11/19 13:17:52;;;;;;;12.18;5.47;;;;;;;;;;4827097;29;20062;-77
2022/11/19 13:20:19;;;;;;;;;;;;;;;;;;4848597;29;20528;-78
2022/11/19 13:22:46;;;;;;;9.95;4.85;;;;;;;;;;4841320;29;47667;-76
2022/11/19 13:25:15;;;;;;;9.90;4.72;;;;;;;;;;4845586;29;20251;-77
2022/11/19 13:27:42;;;;;;;10.45;5.05;;;;;;;;;;4828218;29;20066;-77
2022/11/19 13:30:12;;;;;;;9.27;4.60;;;;;;;;;;4825330;29;20062;-77
2022/11/19 13:32:53;;;;;;;10.70;4.85;;;;;;;;;;4853579;29;20057;-77
2022/11/19 13:35:19;;;;;;;;;;;;;;;;;;4845514;29;20699;-77
2022/11/19 13:38:04;;;;;;;8.85;4.50;;;;;;;;;;4826679;29;48265;-77
2022/11/19 13:40:44;;;;;;;9.73;4.70;;;;;;;;;;4850949;29;20536;-77
2022/11/19 13:46:14;;;;;;;10.13;5.07;;;;;;;;;;4845260;29;20136;-80
2022/11/19 13:49:03;;;;;;;11.48;4.78;;;;;;;;;;4852339;29;20498;-80
2022/11/19 13:51:41;;;;;;;10.57;4.90;;;;;;;;;;4817658;29;20186;-79
2022/11/19 13:54:08;;;;;;;10.80;5.15;;;;;;;;;;4789014;29;1106793;-80
2022/11/19 13:56:36;;;;;;;10.00;4.40;;;;;;;;;;4804912;29;20059;-79
2022/11/19 13:59:03;;;;;;;9.73;4.38;;;;;;;;;;4812391;29;21091;-79
2022/11/19 14:01:35;;;;;;;7.70;4.05;;;;;;;;;;4822311;29;20571;-79
2022/11/19 14:04:20;;;;;;;10.18;5.00;;;;;;;;;;4830600;29;20066;-80
2022/11/19 14:07:03;;;;;;;8.35;4.20;;;;;;;;;;4831229;29;20312;-79
2022/11/19 14:09:50;;;;;;;8.02;4.10;;;;;;;;;;4817203;29;20522;-79
2022/11/19 14:12:25;;;;;;;8.70;3.97;;;;;;;;;;4818025;29;20058;-80
2022/11/19 14:27:31;;;;;;;9.35;3.97;;;;;;;;;;4885791;29;20096;-80
2022/11/19 14:30:01;;;;;;;10.73;4.22;;;;;;;;;;4883489;29;20068;-79
2022/11/19 14:32:33;;;;;;;8.50;4.43;;;;;;;;;;4874464;29;20044;-80
2022/11/19 14:35:01;;;;;;;8.88;4.55;;;;;;;;;;4893922;29;20069;-81
2022/11/19 14:37:36;;;;;;;9.18;3.67;;;;;;;;;;4886415;29;20088;-79
2022/11/19 14:40:07;;;;;;;11.32;4.07;;;;;;;;;;4876622;29;20064;-79
2022/11/19 14:44:07;;;;;;;8.60;4.03;;;;;;;;;;4889406;29;20057;-79
2022/11/19 14:45:23;;;;;;;9.75;4.35;;;;;;;;;;4890240;29;20064;-80
2022/11/19 14:48:01;;;;;;;9.90;4.25;;;;;;;;;;4877509;29;20060;-81
2022/11/19 14:50:28;;;;;;;10.15;4.68;;;;;;;;;;4881241;29;20057;-80
2022/11/19 14:52:56;;;;;;;9.00;4.28;;;;;;;;;;4895482;29;20053;-80
2022/11/19 14:55:27;;;;;;;9.18;4.53;;;;;;;;;;4881221;29;20057;-80
2022/11/19 14:57:53;;;;;;;;;;;;;;;;;;4887954;29;20459;-79
2022/11/19 15:00:26;;;;;;;11.07;4.03;;;;;;;;;;4888742;29;43689;-79
2022/11/19 15:02:52;;;;;;;9.20;4.40;;;;;;;;;;4885553;29;20068;-80
2022/11/19 15:05:26;;;;;;;10.65;4.63;;;;;;;;;;4898024;29;20042;-80
2022/11/19 15:08:11;;;;;;;10.43;4.45;;;;;;;;;;4894923;29;20053;-80
2022/11/19 15:10:45;;;;;;;12.38;5.25;;;;;;;;;;4891389;29;20079;-80
2022/11/19 15:13:19;;;;;;;13.98;6.10;;;;;;;;;;4881088;29;20092;-81